Time;durP1;ratioP1;P1;durP2;ratioP2;P2;SDS_P1;SDS_P2;PMS_P1;PMS_P2;Temp;Humidity;BMP_temperature;BMP_pressure;BME280_temperature;BME280_humidity;BME280_pressure;Samples;Min_cycle;Max_cycle;Signal;HPM_P1;HPM_P2
2023/03/06 00:01:47;;;;;;;;;;;;;;;5.40;69.18;99308.38;4934913;29;1336;-84
2023/03/06 00:04:14;;;;;;;;;;;;;;;5.37;69.36;99314.16;4921802;29;1431;-83
2023/03/06 00:06:40;;;;;;;;;;;;;;;5.35;69.28;99308.22;4937022;29;1223;-84
2023/03/06 00:09:08;;;;;;;;;;;;;;;5.39;69.11;99309.44;4932249;29;1918;-84
2023/03/06 00:11:34;;;;;;;;;;;;;;;5.34;69.17;99307.41;4936954;29;1885;-84
2023/03/06 00:14:01;;;;;;;;;;;;;;;5.32;69.26;99317.47;4929750;29;1202;-84
2023/03/06 00:16:27;;;;;;;;;;;;;;;5.29;69.33;99309.88;4945896;29;1581;-85
2023/03/06 00:18:54;;;;;;;;;;;;;;;5.30;69.25;99303.53;4927585;29;3174;-85
2023/03/06 00:21:20;;;;;;;;;;;;;;;5.30;69.05;99305.38;4944517;29;4546;-84
2023/03/06 00:23:47;;;;;;;;;;;;;;;5.30;69.12;99308.06;4936657;29;4059;-85
2023/03/06 00:26:13;;;;;;;;;;;;;;;5.25;69.30;99300.69;4936534;29;3766;-84
2023/03/06 00:28:40;;;;;;;;;;;;;;;5.20;69.36;99301.31;4929445;29;3781;-85
2023/03/06 00:31:06;;;;;;;;;;;;;;;5.22;69.22;99304.59;4930255;29;3749;-85
2023/03/06 00:33:33;;;;;;;;;;;;;;;5.19;69.33;99297.03;4932790;29;3422;-85
2023/03/06 00:35:59;;;;;;;;;;;;;;;5.18;69.43;99299.91;4930573;29;3796;-85
2023/03/06 00:38:30;;;;;;;;;;;;;;;5.22;69.09;99298.44;4930162;29;3731;-84
2023/03/06 00:40:56;;;;;;;;;;;;;;;5.17;69.24;99300.94;4928465;29;3797;-85
2023/03/06 00:43:23;;;;;;;;;;;;;;;5.18;69.09;99299.91;4937335;29;3212;-85
2023/03/06 00:45:49;;;;;;;;;;;;;;;5.13;69.24;99295.22;4932920;29;3481;-85
2023/03/06 00:48:16;;;;;;;;;;;;;;;5.13;69.26;99294.41;4934536;29;3296;-84
2023/03/06 00:50:43;;;;;;;;;;;;;;;5.13;69.18;99295.22;4933609;29;3687;-84
2023/03/06 00:53:12;;;;;;;;;;;;;;;5.11;69.41;99297.25;4932105;29;3666;-84
2023/03/06 00:55:38;;;;;;;;;;;;;;;5.09;69.21;99288.69;4927451;29;1911;-86
2023/03/06 00:58:05;;;;;;;;;;;;;;;5.09;69.10;99285.16;4931493;29;2447;-84
2023/03/06 01:00:31;;;;;;;;;;;;;;;5.09;69.09;99293.16;4922430;29;4240;-85
2023/03/06 01:02:58;;;;;;;;;;;;;;;5.04;69.35;99296.50;4935314;29;3753;-85
2023/03/06 01:05:25;;;;;;;;;;;;;;;5.05;69.30;99299.97;4935963;29;3446;-84
2023/03/06 01:07:52;;;;;;;;;;;;;;;5.03;69.16;99302.88;4947967;28;3717;-86
2023/03/06 01:10:18;;;;;;;;;;;;;;;4.98;69.34;99300.84;4926891;29;3258;-84
2023/03/06 01:12:45;;;;;;;;;;;;;;;5.00;69.21;99297.97;4926949;29;3711;-84
2023/03/06 01:23:25;;;;;;;;;;;;;;;4.93;69.16;99286.50;4943008;29;3623;-84
2023/03/06 01:25:52;;;;;;;;;;;;;;;4.90;69.33;99287.75;4931117;29;3579;-84
2023/03/06 01:28:19;;;;;;;;;;;;;;;4.90;69.29;99290.41;4929733;29;4384;-86
2023/03/06 01:30:45;;;;;;;;;;;;;;;4.92;68.93;99290.22;4933592;29;3642;-85
2023/03/06 01:33:13;;;;;;;;;;;;;;;4.91;69.11;99286.72;4924191;29;2266;-84
2023/03/06 01:35:39;;;;;;;;;;;;;;;4.86;69.38;99283.88;4929530;29;3683;-84
2023/03/06 01:38:06;;;;;;;;;;;;;;;4.85;69.33;99284.06;4934849;29;3782;-84
2023/03/06 01:40:32;;;;;;;;;;;;;;;4.88;68.90;99280.97;4929772;29;3366;-84
2023/03/06 01:42:59;;;;;;;;;;;;;;;4.86;69.08;99283.06;4927190;29;3636;-84
2023/03/06 01:45:25;;;;;;;;;;;;;;;4.85;69.16;99282.22;4934242;29;2418;-85
2023/03/06 01:47:52;;;;;;;;;;;;;;;4.82;69.12;99277.31;4924957;29;3755;-84
2023/03/06 01:50:18;;;;;;;;;;;;;;;4.80;69.21;99276.72;4928770;29;3895;-84
2023/03/06 01:52:45;;;;;;;;;;;;;;;4.80;69.08;99279.41;4927979;29;3915;-84
2023/03/06 01:55:11;;;;;;;;;;;;;;;4.77;69.24;99277.97;4937309;29;2374;-84
2023/03/06 01:57:38;;;;;;;;;;;;;;;4.83;69.05;99278.16;4928273;29;3637;-84
2023/03/06 02:00:05;;;;;;;;;;;;;;;4.79;69.23;99280.41;4925671;29;2709;-83
2023/03/06 02:02:31;;;;;;;;;;;;;;;4.79;69.04;99283.06;4911413;29;3197;-83
2023/03/06 02:04:58;;;;;;;;;;;;;;;4.76;69.14;99283.50;4930544;29;2792;-84
2023/03/06 02:07:24;;;;;;;;;;;;;;;4.75;69.19;99281.88;4932681;29;3775;-84
2023/03/06 02:09:51;;;;;;;;;;;;;;;4.73;69.01;99278.59;4931645;29;4608;-83
2023/03/06 02:12:18;;;;;;;;;;;;;;;4.74;68.92;99277.56;4932975;29;3445;-83
2023/03/06 02:14:45;;;;;;;;;;;;;;;4.71;69.19;99280.69;4930420;29;3253;-86
2023/03/06 02:17:11;;;;;;;;;;;;;;;4.69;69.03;99278.19;4934073;29;3918;-85
2023/03/06 02:19:38;;;;;;;;;;;;;;;4.71;69.33;99278.81;4928177;29;4570;-84
2023/03/06 02:22:05;;;;;;;;;;;;;;;4.74;68.98;99282.91;4931529;29;3821;-84
2023/03/06 02:24:31;;;;;;;;;;;;;;;4.70;69.05;99273.69;4927729;29;3711;-83
2023/03/06 02:26:58;;;;;;;;;;;;;;;4.69;69.20;99280.06;4942688;29;4058;-83
2023/03/06 02:29:24;;;;;;;;;;;;;;;4.71;68.96;99276.16;4931090;29;3798;-85
2023/03/06 02:31:51;;;;;;;;;;;;;;;4.70;68.87;99277.16;4931688;29;3874;-85
2023/03/06 02:34:18;;;;;;;;;;;;;;;4.68;68.83;99273.09;4926976;29;3717;-86
2023/03/06 02:36:44;;;;;;;;;;;;;;;4.69;68.75;99270.19;4928167;29;3826;-85
2023/03/06 02:39:11;;;;;;;;;;;;;;;4.66;68.77;99270.63;4933663;29;3794;-85
2023/03/06 02:41:37;;;;;;;;;;;;;;;4.67;68.72;99268.78;4929935;29;3801;-85
2023/03/06 02:44:04;;;;;;;;;;;;;;;4.65;68.86;99271.66;4932989;29;3817;-84
2023/03/06 02:46:30;;;;;;;;;;;;;;;4.67;68.83;99268.78;4928934;29;3581;-85
2023/03/06 02:48:57;;;;;;;;;;;;;;;4.68;68.53;99260.56;4932993;29;1871;-85
2023/03/06 02:51:23;;;;;;;;;;;;;;;4.67;68.54;99260.78;4931393;29;2518;-85
2023/03/06 02:53:50;;;;;;;;;;;;;;;4.67;68.84;99263.44;4932518;29;3873;-85
2023/03/06 02:56:18;;;;;;;;;;;;;;;4.64;68.71;99251.34;4932372;29;3524;-83
2023/03/06 02:58:44;;;;;;;;;;;;;;;4.65;68.65;99250.34;4930722;29;3580;-84
2023/03/06 03:01:11;;;;;;;;;;;;;;;4.66;68.68;99251.97;4949470;29;2327;-84
2023/03/06 03:03:37;;;;;;;;;;;;;;;4.63;68.75;99255.06;4926682;29;3734;-84
2023/03/06 03:06:04;;;;;;;;;;;;;;;4.62;68.69;99255.25;4928516;29;3852;-85
2023/03/06 03:08:31;;;;;;;;;;;;;;;4.63;68.57;99252.38;4930785;29;3742;-84
2023/03/06 03:10:57;;;;;;;;;;;;;;;4.63;68.62;99255.06;4931529;29;3572;-84
2023/03/06 03:13:24;;;;;;;;;;;;;;;4.65;68.54;99244.19;4930266;29;3778;-84
2023/03/06 03:15:50;;;;;;;;;;;;;;;4.64;68.36;99248.69;4928572;29;3814;-86
2023/03/06 03:18:17;;;;;;;;;;;;;;;4.65;68.43;99244.19;4927697;29;3773;-85
2023/03/06 03:20:44;;;;;;;;;;;;;;;4.64;68.45;99248.69;4934802;29;3415;-84
2023/03/06 03:23:10;;;;;;;;;;;;;;;4.67;68.26;99248.25;4932590;29;2941;-85
2023/03/06 03:25:37;;;;;;;;;;;;;;;4.66;68.17;99246.63;4926622;29;3794;-85
2023/03/06 03:28:04;;;;;;;;;;;;;;;4.63;68.23;99243.56;4927391;29;3796;-85
2023/03/06 03:30:31;;;;;;;;;;;;;;;4.62;68.42;99241.91;4940033;29;3480;-84
2023/03/06 03:32:57;;;;;;;;;;;;;;;4.59;68.71;99239.69;4926164;29;3696;-85
2023/03/06 03:35:24;;;;;;;;;;;;;;;4.61;68.32;99240.28;4935026;29;3700;-84
2023/03/06 03:37:51;;;;;;;;;;;;;;;4.62;68.31;99242.75;4931333;29;3819;-84
2023/03/06 03:40:18;;;;;;;;;;;;;;;4.62;68.29;99241.91;4932310;29;4191;-86
2023/03/06 03:42:44;;;;;;;;;;;;;;;4.62;68.29;99239.25;4933534;29;3400;-85
2023/03/06 03:45:11;;;;;;;;;;;;;;;4.63;68.42;99233.72;4932476;29;3800;-85
2023/03/06 03:47:37;;;;;;;;;;;;;;;4.63;68.22;99235.56;4929451;29;3722;-85
2023/03/06 03:50:04;;;;;;;;;;;;;;;4.59;68.22;99229.84;4925512;29;3824;-85
2023/03/06 03:52:31;;;;;;;;;;;;;;;4.61;68.20;99230.44;4927325;29;3336;-85
2023/03/06 03:54:57;;;;;;;;;;;;;;;4.58;68.18;99225.53;4930860;29;4187;-84
2023/03/06 03:57:24;;;;;;;;;;;;;;;4.57;68.17;99226.56;4930650;29;3730;-85
2023/03/06 03:59:50;;;;;;;;;;;;;;;4.59;68.30;99226.34;4928803;29;3630;-85
2023/03/06 04:02:17;;;;;;;;;;;;;;;4.60;68.20;99228.00;4926336;29;3765;-84
2023/03/06 04:04:43;;;;;;;;;;;;;;;4.59;68.37;99226.34;4937151;29;4293;-85
2023/03/06 04:07:10;;;;;;;;;;;;;;;4.58;68.26;99228.19;4924994;29;2852;-84
2023/03/06 04:09:37;;;;;;;;;;;;;;;4.58;68.39;99224.72;4929405;29;3734;-84
2023/03/06 04:12:03;;;;;;;;;;;;;;;4.59;68.20;99227.19;4927697;29;3707;-85
2023/03/06 04:14:31;;;;;;;;;;;;;;;4.59;68.32;99229.00;4930975;29;3656;-85
2023/03/06 04:16:58;;;;;;;;;;;;;;;4.58;68.10;99224.72;4926824;29;2309;-85
2023/03/06 04:19:24;;;;;;;;;;;;;;;4.56;68.22;99219.63;4926502;29;3840;-85
2023/03/06 04:21:51;;;;;;;;;;;;;;;4.56;68.07;99222.28;4927514;29;3783;-85
2023/03/06 04:24:17;;;;;;;;;;;;;;;4.61;67.87;99221.63;4931231;29;3603;-85
2023/03/06 04:26:44;;;;;;;;;;;;;;;4.58;68.01;99219.38;4925191;29;3603;-85
2023/03/06 04:29:10;;;;;;;;;;;;;;;4.61;67.89;99214.44;4928019;29;3778;-84
2023/03/06 04:31:37;;;;;;;;;;;;;;;4.61;67.89;99219.75;4923082;29;2867;-82
2023/03/06 04:34:03;;;;;;;;;;;;;;;4.61;67.84;99221.63;4935169;29;4017;-85
2023/03/06 04:36:30;;;;;;;;;;;;;;;4.59;67.82;99216.50;4941289;29;3705;-85
2023/03/06 04:38:57;;;;;;;;;;;;;;;4.60;67.61;99217.34;4933838;29;3888;-84
2023/03/06 04:41:23;;;;;;;;;;;;;;;4.67;67.61;99223.44;4926056;29;3734;-85
2023/03/06 04:43:50;;;;;;;;;;;;;;;4.61;67.78;99217.09;4928398;29;3540;-84
2023/03/06 04:46:17;;;;;;;;;;;;;;;4.59;67.86;99213.84;4930486;29;3475;-84
2023/03/06 04:48:43;;;;;;;;;;;;;;;4.59;67.63;99216.50;4948755;29;3922;-85
2023/03/06 04:51:09;;;;;;;;;;;;;;;4.62;67.73;99216.09;4925611;29;3735;-85
2023/03/06 04:53:36;;;;;;;;;;;;;;;4.62;67.63;99213.44;4923296;29;3627;-84
2023/03/06 04:56:03;;;;;;;;;;;;;;;4.62;67.88;99213.44;4944108;28;2820;-84
2023/03/06 04:58:29;;;;;;;;;;;;;;;4.62;67.71;99209.91;4928459;29;3260;-85
2023/03/06 05:00:56;;;;;;;;;;;;;;;4.65;67.46;99209.50;4927087;29;2559;-84
2023/03/06 05:03:22;;;;;;;;;;;;;;;4.63;67.48;99217.72;4928935;29;3719;-84
2023/03/06 05:05:49;;;;;;;;;;;;;;;4.62;67.47;99209.91;4931024;29;3876;-85
2023/03/06 05:08:15;;;;;;;;;;;;;;;4.61;67.63;99211.78;4920649;29;3562;-85
2023/03/06 05:10:42;;;;;;;;;;;;;;;4.60;67.75;99207.47;4943911;29;2426;-84
2023/03/06 05:13:08;;;;;;;;;;;;;;;4.66;67.48;99211.13;4934724;29;3880;-84
2023/03/06 05:15:35;;;;;;;;;;;;;;;4.63;67.63;99215.06;4937253;29;3824;-84
2023/03/06 05:18:01;;;;;;;;;;;;;;;4.61;67.52;99217.09;4937046;29;3646;-84
2023/03/06 05:20:28;;;;;;;;;;;;;;;4.64;67.50;99211.34;4938520;29;2180;-85
2023/03/06 05:22:55;;;;;;;;;;;;;;;4.64;67.51;99213.19;4929042;29;3766;-85
2023/03/06 05:25:21;;;;;;;;;;;;;;;4.63;67.47;99216.91;4931081;29;3714;-85
2023/03/06 05:27:48;;;;;;;;;;;;;;;4.68;67.37;99209.91;4927548;29;3694;-85
2023/03/06 05:30:14;;;;;;;;;;;;;;;4.62;67.60;99212.56;4932843;29;3528;-85
2023/03/06 05:32:41;;;;;;;;;;;;;;;4.67;67.26;99212.75;4930609;29;1602;-85
2023/03/06 05:35:08;;;;;;;;;;;;;;;4.63;67.21;99208.91;4935623;29;3472;-84
2023/03/06 05:37:34;;;;;;;;;;;;;;;4.61;67.26;99219.75;4932784;29;3336;-85
2023/03/06 05:40:01;;;;;;;;;;;;;;;4.65;67.46;99218.31;4925928;29;3619;-85
2023/03/06 05:42:27;;;;;;;;;;;;;;;4.64;67.27;99218.53;4931613;29;3233;-85
2023/03/06 05:44:54;;;;;;;;;;;;;;;4.64;67.16;99213.19;4945703;29;3672;-85
2023/03/06 05:47:21;;;;;;;;;;;;;;;4.65;67.35;99209.50;4930352;29;3742;-85
2023/03/06 05:49:47;;;;;;;;;;;;;;;4.61;67.44;99208.28;4930210;29;3828;-85
2023/03/06 05:52:16;;;;;;;;;;;;;;;4.65;67.49;99205.00;4927713;29;3651;-85
2023/03/06 05:54:42;;;;;;;;;;;;;;;4.68;67.21;99211.75;4935804;29;3829;-85
2023/03/06 05:57:09;;;;;;;;;;;;;;;4.64;67.15;99213.19;4934439;29;3419;-84
2023/03/06 05:59:35;;;;;;;;;;;;;;;4.70;67.09;99215.00;4932441;29;3777;-84
2023/03/06 06:02:04;;;;;;;;;;;;;;;4.62;67.13;99213.44;4929053;29;3677;-84
2023/03/06 06:04:30;;;;;;;;;;;;;;;4.66;67.23;99219.13;4937157;29;3421;-83
2023/03/06 06:06:57;;;;;;;;;;;;;;;4.71;66.88;99217.47;4925346;29;3909;-85
2023/03/06 06:09:26;;;;;;;;;;;;;;;4.64;67.12;99213.19;4924607;29;3945;-85
2023/03/06 06:11:53;;;;;;;;;;;;;;;4.63;67.23;99209.72;4923848;29;3777;-85
2023/03/06 06:14:20;;;;;;;;;;;;;;;4.65;66.99;99209.50;4930739;29;3001;-85
2023/03/06 06:16:46;;;;;;;;;;;;;;;4.75;66.81;99209.84;4930373;29;4122;-85
2023/03/06 06:19:17;;;;;;;;;;;;;;;4.70;66.99;99207.81;4928108;29;3632;-85
2023/03/06 06:21:44;;;;;;;;;;;;;;;4.68;67.24;99211.75;4928745;29;3830;-85
2023/03/06 06:24:10;;;;;;;;;;;;;;;4.72;66.95;99205.75;4925637;29;3568;-84
2023/03/06 06:26:37;;;;;;;;;;;;;;;4.66;67.20;99205.81;4926888;29;2840;-84
2023/03/06 06:29:04;;;;;;;;;;;;;;;4.74;66.83;99210.91;4922221;29;3612;-85
2023/03/06 06:31:30;;;;;;;;;;;;;;;4.78;66.71;99209.41;4926460;29;4455;-83
2023/03/06 06:33:57;;;;;;;;;;;;;;;4.81;66.56;99216.19;4924738;29;3707;-83
2023/03/06 06:36:23;;;;;;;;;;;;;;;4.75;66.75;99210.66;4932653;29;3641;-83
2023/03/06 06:38:50;;;;;;;;;;;;;;;4.72;66.82;99215.63;4927837;29;3913;-84
2023/03/06 06:41:17;;;;;;;;;;;;;;;4.69;66.96;99218.72;4928089;29;3943;-83
2023/03/06 06:43:43;;;;;;;;;;;;;;;4.71;66.77;99219.31;4924447;29;3713;-84
2023/03/06 06:46:10;;;;;;;;;;;;;;;4.74;66.72;99222.38;4925160;29;3761;-84
2023/03/06 06:48:37;;;;;;;;;;;;;;;4.72;66.87;99216.44;4926918;29;3891;-84
2023/03/06 06:51:03;;;;;;;;;;;;;;;4.74;66.70;99225.03;4938120;29;3796;-84
2023/03/06 06:53:30;;;;;;;;;;;;;;;4.83;66.59;99217.59;4921734;29;3660;-84
2023/03/06 06:55:56;;;;;;;;;;;;;;;4.79;66.61;99208.38;4925373;29;3647;-85
2023/03/06 06:58:23;;;;;;;;;;;;;;;4.80;66.51;99215.38;4925684;29;3680;-83
2023/03/06 07:00:49;;;;;;;;;;;;;;;4.76;66.71;99215.00;4922715;29;3726;-84
2023/03/06 07:03:16;;;;;;;;;;;;;;;4.77;66.56;99224.63;4928689;29;4164;-84
2023/03/06 07:05:43;;;;;;;;;;;;;;;4.76;66.65;99223.00;4931651;29;2367;-83
2023/03/06 07:08:09;;;;;;;;;;;;;;;4.72;66.67;99221.75;4926397;29;3154;-84
2023/03/06 07:10:38;;;;;;;;;;;;;;;4.69;66.77;99218.72;4930052;29;3694;-83
2023/03/06 07:13:04;;;;;;;;;;;;;;;4.71;66.35;99225.47;4930118;29;3659;-83
2023/03/06 07:15:32;;;;;;;;;;;;;;;4.82;66.42;99228.47;4930646;29;3699;-84
2023/03/06 07:18:00;;;;;;;;;;;;;;;4.75;66.54;99220.53;4933166;29;2170;-84
2023/03/06 07:20:26;;;;;;;;;;;;;;;4.76;66.66;99223.00;4930198;29;3828;-85
2023/03/06 07:22:53;;;;;;;;;;;;;;;4.90;66.25;99222.91;4924740;29;3224;-84
2023/03/06 07:25:19;;;;;;;;;;;;;;;4.74;66.57;99217.03;4926842;29;3416;-84
2023/03/06 07:27:46;;;;;;;;;;;;;;;4.78;66.30;99220.91;4920428;29;4530;-85
2023/03/06 07:30:12;;;;;;;;;;;;;;;4.76;66.54;99228.31;4928334;29;2642;-86
2023/03/06 07:32:39;;;;;;;;;;;;;;;4.80;66.59;99231.38;4927209;29;2525;-85
2023/03/06 07:35:06;;;;;;;;;;;;;;;4.81;66.39;99225.00;4928332;29;2539;-86
2023/03/06 07:37:32;;;;;;;;;;;;;;;4.82;66.19;99220.47;4946867;29;2489;-85
2023/03/06 07:39:59;;;;;;;;;;;;;;;4.86;66.27;99225.19;4928941;29;1904;-84
2023/03/06 07:42:26;;;;;;;;;;;;;;;4.82;65.83;99223.16;4923717;29;5496;-85
2023/03/06 07:44:52;;;;;;;;;;;;;;;4.86;66.28;99224.38;4931682;29;5212;-86
2023/03/06 07:47:19;;;;;;;;;;;;;;;4.87;66.25;99231.31;4926038;29;3788;-84
2023/03/06 07:49:45;;;;;;;;;;;;;;;4.84;66.41;99229.09;4927377;29;3336;-84
2023/03/06 07:52:12;;;;;;;;;;;;;;;4.81;66.16;99230.34;4926974;29;2335;-84
2023/03/06 07:54:39;;;;;;;;;;;;;;;4.85;66.08;99226.19;4924988;29;3751;-85
2023/03/06 07:57:05;;;;;;;;;;;;;;;4.81;66.27;99232.19;4927407;29;4323;-85
2023/03/06 07:59:32;;;;;;;;;;;;;;;4.78;66.54;99236.09;4928887;29;2817;-85
2023/03/06 08:01:59;;;;;;;;;;;;;;;4.89;66.11;99235.41;4927037;29;1708;-85
2023/03/06 08:04:25;;;;;;;;;;;;;;;4.87;66.13;99242.81;4923051;29;3738;-85
2023/03/06 08:06:52;;;;;;;;;;;;;;;4.82;66.26;99236.47;4928125;29;2523;-85
2023/03/06 08:09:18;;;;;;;;;;;;;;;4.81;66.38;99238.34;4923779;29;5800;-85
2023/03/06 08:11:45;;;;;;;;;;;;;;;4.80;66.39;99243.91;4934149;29;5966;-84
2023/03/06 08:14:12;;;;;;;;;;;;;;;4.84;66.42;99245.91;4929545;29;2279;-85
2023/03/06 08:16:38;;;;;;;;;;;;;;;4.84;66.37;99237.09;4930531;29;2543;-86
2023/03/06 08:19:05;;;;;;;;;;;;;;;4.82;66.37;99236.47;4929796;29;2312;-84
2023/03/06 08:21:31;;;;;;;;;;;;;;;4.94;65.89;99226.75;4933705;29;1265;-85
2023/03/06 08:23:58;;;;;;;;;;;;;;;4.92;66.10;99236.84;4928963;29;2275;-83
2023/03/06 08:26:24;;;;;;;;;;;;;;;4.87;66.41;99234.00;4926159;29;2718;-84
2023/03/06 08:28:51;;;;;;;;;;;;;;;4.86;65.97;99238.53;4924085;29;2420;-84
2023/03/06 08:31:17;;;;;;;;;;;;;;;4.91;65.79;99237.84;4932358;29;3662;-85
2023/03/06 08:33:44;;;;;;;;;;;;;;;4.89;65.81;99243.44;4935448;29;2672;-84
2023/03/06 08:36:10;;;;;;;;;;;;;;;4.89;65.94;99245.28;4932785;29;2643;-84
2023/03/06 08:38:37;;;;;;;;;;;;;;;4.84;66.40;99239.75;4935208;29;2411;-85
2023/03/06 08:41:03;;;;;;;;;;;;;;;4.89;65.93;99230.09;4938338;29;1447;-85
2023/03/06 08:43:30;;;;;;;;;;;;;;;4.89;65.64;99240.75;4932230;29;3802;-84
2023/03/06 08:45:57;;;;;;;;;;;;;;;4.87;66.12;99239.34;4930026;29;2360;-86
2023/03/06 08:48:23;;;;;;;;;;;;;;;4.89;66.13;99242.63;4933816;29;3748;-84
2023/03/06 08:50:49;;;;;;;;;;;;;;;4.88;66.37;99243.63;4935924;29;3847;-85
2023/03/06 08:53:16;;;;;;;;;;;;;;;4.92;65.91;99242.19;4929512;29;3749;-85
2023/03/06 08:55:43;;;;;;;;;;;;;;;4.94;65.88;99237.44;4926454;29;3025;-84
2023/03/06 08:58:09;;;;;;;;;;;;;;;5.07;65.60;99236.53;4935440;29;2290;-85
2023/03/06 09:00:36;;;;;;;;;;;;;;;4.94;66.52;99240.09;4941674;29;2339;-84
2023/03/06 09:03:02;;;;;;;;;;;;;;;4.96;65.72;99238.84;4932879;29;2299;-85
2023/03/06 09:05:29;;;;;;;;;;;;;;;4.94;66.11;99237.44;4926240;29;2642;-85
2023/03/06 09:07:55;;;;;;;;;;;;;;;4.93;66.16;99244.63;4920178;29;2968;-85
2023/03/06 09:10:22;;;;;;;;;;;;;;;4.94;66.26;99240.94;4921470;29;2841;-85
2023/03/06 09:12:48;;;;;;;;;;;;;;;5.01;66.16;99244.38;4933604;29;1987;-85
2023/03/06 09:15:15;;;;;;;;;;;;;;;5.03;66.08;99241.50;4934386;29;2344;-85
2023/03/06 09:17:42;;;;;;;;;;;;;;;5.04;65.95;99239.66;4938752;29;2432;-86
2023/03/06 09:20:08;;;;;;;;;;;;;;;4.98;66.16;99244.81;4935559;29;1738;-85
2023/03/06 09:22:35;;;;;;;;;;;;;;;5.00;66.30;99244.59;4928683;29;2469;-85
2023/03/06 09:25:01;;;;;;;;;;;;;;;5.09;66.16;99242.47;4931679;29;1555;-85
2023/03/06 09:27:28;;;;;;;;;;;;;;;5.13;65.64;99233.81;4936604;29;1020;-86
2023/03/06 09:29:54;;;;;;;;;;;;;;;5.06;65.84;99234.88;4933357;29;1720;-86
2023/03/06 09:32:21;;;;;;;;;;;;;;;5.06;66.62;99230.41;4932891;29;2284;-85
2023/03/06 09:34:47;;;;;;;;;;;;;;;5.09;66.11;99229.13;4928550;29;2254;-86
2023/03/06 09:37:14;;;;;;;;;;;;;;;5.14;66.09;99227.44;4936211;29;2419;-85
2023/03/06 09:39:41;;;;;;;;;;;;;;;5.10;66.08;99228.91;4937167;29;1521;-85
2023/03/06 09:42:11;;;;;;;;;;;;;;;5.14;66.25;99223.97;4924794;29;3525;-85
2023/03/06 09:44:37;;;;;;;;;;;;;;;5.17;66.01;99229.69;4931163;29;3602;-86
2023/03/06 09:47:05;;;;;;;;;;;;;;;5.12;66.26;99231.38;4934010;29;2498;-86
2023/03/06 09:49:32;;;;;;;;;;;;;;;5.16;66.21;99227.25;4933714;29;1539;-87
2023/03/06 09:51:58;;;;;;;;;;;;;;;5.17;66.16;99223.53;4943908;28;2620;-86
2023/03/06 09:54:25;;;;;;;;;;;;;;;5.17;66.12;99215.50;4935890;29;2313;-87
2023/03/06 09:56:52;;;;;;;;;;;;;;;5.16;66.33;99214.69;4928110;29;2739;-85
2023/03/06 09:59:19;;;;;;;;;;;;;;;5.15;66.65;99205.06;4927828;29;2526;-85
2023/03/06 10:01:45;;;;;;;;;;;;;;;5.24;66.20;99217.13;4930154;29;2184;-86
2023/03/06 10:04:12;;;;;;;;;;;;;;;5.23;66.26;99210.16;4938487;29;1584;-86
2023/03/06 10:06:38;;;;;;;;;;;;;;;5.22;66.24;99213.84;4931996;29;2289;-85
2023/03/06 10:09:05;;;;;;;;;;;;;;;5.21;66.35;99212.22;4931777;29;1203;-85
2023/03/06 10:11:32;;;;;;;;;;;;;;;5.27;66.27;99223.88;4933915;29;2242;-87
2023/03/06 10:13:58;;;;;;;;;;;;;;;5.28;66.41;99206.81;4928485;29;1570;-87
2023/03/06 10:16:25;;;;;;;;;;;;;;;5.24;66.32;99216.31;4949684;29;1524;-87
2023/03/06 10:18:52;;;;;;;;;;;;;;;5.22;66.50;99216.50;4931932;29;2087;-87
2023/03/06 10:21:20;;;;;;;;;;;;;;;5.27;66.65;99207.84;4921511;29;2697;-87
2023/03/06 10:23:49;;;;;;;;;;;;;;;5.24;66.70;99210.97;4912832;29;3014;-87
2023/03/06 10:26:16;;;;;;;;;;;;;;;5.25;66.56;99209.91;4935121;29;2780;-87
2023/03/06 10:28:43;;;;;;;;;;;;;;;5.32;66.59;99209.84;4934573;29;2350;-87
2023/03/06 10:31:09;;;;;;;;;;;;;;;5.28;66.59;99212.16;4917363;29;2291;-87
2023/03/06 10:33:36;;;;;;;;;;;;;;;5.30;66.58;99199.41;4903808;29;3310;-88
2023/03/06 10:36:03;;;;;;;;;;;;;;;5.34;66.47;99199.78;4902529;29;5612;-87
2023/03/06 10:38:29;;;;;;;;;;;;;;;5.32;66.67;99197.31;4933500;29;1655;-88
2023/03/06 10:40:56;;;;;;;;;;;;;;;5.32;66.71;99193.84;4928843;29;3702;-88
2023/03/06 10:43:23;;;;;;;;;;;;;;;5.38;66.61;99190.28;4932861;29;3922;-88
2023/03/06 10:45:49;;;;;;;;;;;;;;;5.38;66.42;99190.28;4932331;29;4642;-89
2023/03/06 10:48:16;;;;;;;;;;;;;;;5.37;66.65;99188.66;4931187;29;3751;-89
2023/03/06 10:50:42;;;;;;;;;;;;;;;5.38;66.62;99191.13;4929184;29;4385;-89
2023/03/06 10:53:09;;;;;;;;;;;;;;;5.35;66.73;99172.84;4929035;29;3655;-89
2023/03/06 10:55:35;;;;;;;;;;;;;;;5.37;66.81;99176.13;4931799;29;2554;-87
2023/03/06 10:58:02;;;;;;;;;;;;;;;5.41;66.72;99172.00;4931615;29;2585;-87
2023/03/06 11:00:29;;;;;;;;;;;;;;;5.41;66.70;99172.00;4926517;29;2335;-87
2023/03/06 11:02:55;;;;;;;;;;;;;;;5.37;66.68;99168.13;4934020;29;1562;-86
2023/03/06 11:05:22;;;;;;;;;;;;;;;5.44;66.59;99179.56;4932523;29;1698;-87
2023/03/06 11:07:48;;;;;;;;;;;;;;;5.43;66.65;99172.56;4934249;29;1549;-87
2023/03/06 11:10:15;;;;;;;;;;;;;;;5.45;66.71;99164.34;4945535;29;1627;-87
2023/03/06 11:12:42;;;;;;;;;;;;;;;5.45;66.93;99169.69;4947338;29;1902;-88
2023/03/06 11:15:08;;;;;;;;;;;;;;;5.56;66.33;99170.81;4934652;29;1684;-89
2023/03/06 11:17:35;;;;;;;;;;;;;;;5.49;66.66;99168.22;4935788;29;1642;-90
2023/03/06 11:20:03;;;;;;;;;;;;;;;5.47;66.92;99164.94;4930503;29;5507;-88
2023/03/06 11:22:30;;;;;;;;;;;;;;;5.53;66.71;99166.75;4948047;28;1578;-89
2023/03/06 11:24:56;;;;;;;;;;;;;;;5.51;66.83;99158.13;4932548;29;1296;-88
2023/03/06 11:27:23;;;;;;;;;;;;;;;5.52;66.91;99158.94;4927391;29;5520;-88
2023/03/06 11:29:49;;;;;;;;;;;;;;;5.51;66.81;99160.00;4930117;29;2373;-88
2023/03/06 11:32:16;;;;;;;;;;;;;;;5.52;66.96;99150.94;4931621;29;1910;-89
2023/03/06 11:34:43;;;;;;;;;;;;;;;5.51;67.08;99154.66;4927436;29;2126;-92
2023/03/06 11:37:09;;;;;;;;;;;;;;;5.53;67.15;99155.22;4930193;29;1389;-90
2023/03/06 11:39:36;;;;;;;;;;;;;;;5.50;67.06;99145.00;4924470;29;1797;-90
2023/03/06 11:42:02;;;;;;;;;;;;;;;5.55;67.12;99155.84;4944184;29;2704;-89
2023/03/06 11:44:29;;;;;;;;;;;;;;;5.56;67.15;99152.97;4931870;29;2539;-90
2023/03/06 11:46:56;;;;;;;;;;;;;;;5.57;67.06;99156.44;4929283;29;2288;-90
2023/03/06 11:49:22;;;;;;;;;;;;;;;5.56;67.20;99150.28;4941466;28;2336;-91
2023/03/06 11:51:49;;;;;;;;;;;;;;;5.57;67.10;99149.25;4943362;29;1972;-91
2023/03/06 11:54:15;;;;;;;;;;;;;;;5.61;66.97;99145.06;4929570;29;2313;-94
2023/03/06 11:56:42;;;;;;;;;;;;;;;5.59;67.29;99146.34;4928657;29;2776;-93
2023/03/06 11:59:08;;;;;;;;;;;;;;;5.58;67.09;99148.19;4925439;29;1622;-91
2023/03/06 12:01:35;;;;;;;;;;;;;;;5.59;67.39;99149.84;4929446;29;2464;-92
2023/03/06 12:04:02;;;;;;;;;;;;;;;5.63;67.06;99144.88;4934071;29;1794;-93
2023/03/06 12:06:29;;;;;;;;;;;;;;;5.63;67.29;99143.00;4929563;29;2924;-93
2023/03/06 12:08:55;;;;;;;;;;;;;;;5.62;67.16;99141.38;4935043;29;2077;-92
2023/03/06 12:11:22;;;;;;;;;;;;;;;5.65;67.24;99140.13;4951147;29;3823;-92
2023/03/06 12:13:49;;;;;;;;;;;;;;;5.62;67.31;99141.38;4931414;29;5246;-92
2023/03/06 12:16:16;;;;;;;;;;;;;;;5.67;67.40;99138.03;4938812;29;2108;-93
2023/03/06 12:18:43;;;;;;;;;;;;;;;5.68;67.28;99129.00;4929575;29;2621;-93
2023/03/06 12:21:09;;;;;;;;;;;;;;;5.67;67.35;99133.50;4951437;29;2214;-94
2023/03/06 12:23:37;;;;;;;;;;;;;;;5.69;67.43;99126.09;4922329;29;2669;-93
2023/03/06 12:26:04;;;;;;;;;;;;;;;5.73;67.34;99125.66;4946890;28;2191;-94
2023/03/06 12:28:37;;;;;;;;;;;;;;;5.69;67.56;99125.28;4932589;29;2902;-93
2023/03/06 12:31:04;;;;;;;;;;;;;;;5.69;67.39;99122.59;4932546;29;2282;-92
2023/03/06 12:33:30;;;;;;;;;;;;;;;5.68;67.54;99124.47;4929749;29;4207;-93
2023/03/06 12:36:15;;;;;;;;;;;;;;;4.04;45.65;99117.53;4929029;29;2453;-94
2023/03/06 12:38:45;;;;;;;;;;;;;;;5.39;59.82;99112.66;4944586;29;2477;-93
2023/03/06 12:41:14;;;;;;;;;;;;;;;5.57;59.01;99117.19;4940318;29;2553;-93
2023/03/06 12:43:41;;;;;;;;;;;;;;;5.70;60.10;99121.56;4943472;29;2466;-93
2023/03/06 12:46:19;;;;;;;;;;;;;;;5.73;60.92;99117.63;4945180;29;2653;-94
2023/03/06 12:48:47;;;;;;;;;;;;;;;5.72;61.72;99110.66;4940622;29;2518;-93
2023/03/06 12:51:14;;;;;;;;;;;;;;;5.70;62.47;99114.34;4937427;29;5792;-91
2023/03/06 12:53:41;;;;;;;;;;;;;;;5.70;63.04;99101.00;4930553;29;4238;-90
2023/03/06 12:56:08;;;;;;;;;;;;;;;5.72;63.31;99103.47;4933347;29;3141;-92
2023/03/06 12:58:35;;;;;;;;;;;;;;;5.70;63.79;99108.19;4943678;29;2832;-91
2023/03/06 13:01:03;;;;;;;;;;;;;;;5.73;64.16;99105.09;4936740;29;2801;-89
2023/03/06 13:03:32;;;;;;;;;;;;;;;5.75;64.43;99107.53;4948078;29;2338;-91
2023/03/06 13:05:59;;;;;;;;;;;;;;;5.77;64.49;99100.13;4930012;29;2771;-90
2023/03/06 13:08:25;;;;;;;;;;;;;;;5.76;64.80;99095.81;4926704;29;2808;-91
2023/03/06 13:10:52;;;;;;;;;;;;;;;5.78;64.99;99094.56;4938603;29;1715;-92
2023/03/06 13:13:21;;;;;;;;;;;;;;;5.80;65.11;99097.81;4951872;28;2842;-93